createdAt,value
2023-03-17T00:01:25.872Z,100476.84
2023-03-17T00:03:55.173Z,100469.09
2023-03-17T00:06:27.807Z,100475.94
2023-03-17T00:08:57.373Z,100469.81
2023-03-17T00:11:25.797Z,100474.38
2023-03-17T00:13:53.969Z,100470.16
2023-03-17T00:16:25.616Z,100447.72
2023-03-17T00:18:55.058Z,100458.03
2023-03-17T00:21:28.180Z,100460.75
2023-03-17T00:23:56.435Z,100472.88
2023-03-17T00:26:26.422Z,100475.69
2023-03-17T00:28:57.835Z,100467.81
2023-03-17T00:31:30.408Z,100464.78
2023-03-17T00:33:59.086Z,100477.56
2023-03-17T00:36:29.365Z,100462.69
2023-03-17T00:38:58.339Z,100436.78
2023-03-17T00:41:27.057Z,100458.50
2023-03-17T00:43:55.383Z,100480.41
2023-03-17T00:46:28.805Z,100463.22
2023-03-17T00:48:58.387Z,100471.09
2023-03-17T00:51:26.329Z,100447.66
2023-03-17T00:53:56.507Z,100443.97
2023-03-17T00:56:24.673Z,100428.50
2023-03-17T00:58:52.817Z,100464.25
2023-03-17T01:01:20.792Z,100400.63
2023-03-17T01:03:50.089Z,100462.66
2023-03-17T01:06:18.683Z,100465.09
2023-03-17T01:08:47.401Z,100458.69
2023-03-17T01:11:18.700Z,100446.63
2023-03-17T01:13:48.815Z,100445.59
2023-03-17T01:16:17.045Z,100454.22
2023-03-17T01:18:45.560Z,100455.66
2023-03-17T01:21:15.373Z,100461.75
2023-03-17T01:23:43.654Z,100457.25
2023-03-17T01:26:11.757Z,100398.47
2023-03-17T01:28:39.702Z,100406.16
2023-03-17T01:31:07.630Z,100459.19
2023-03-17T01:33:35.512Z,100411.66
2023-03-17T01:36:03.521Z,100475.75
2023-03-17T01:38:32.840Z,100458.34
2023-03-17T01:41:02.296Z,100464.47
2023-03-17T01:43:31.644Z,100448.78
2023-03-17T01:46:29.803Z,100449.69
2023-03-17T01:49:21.046Z,100440.72
2023-03-17T01:51:55.756Z,100404.41
2023-03-17T01:54:31.697Z,100401.75
2023-03-17T01:57:04.875Z,100430.38
2023-03-17T01:59:37.675Z,100387.94
2023-03-17T02:02:09.083Z,100411.31
2023-03-17T02:04:40.132Z,100409.56
2023-03-17T02:07:08.783Z,100373.97
2023-03-17T02:09:41.965Z,100411.34
2023-03-17T02:12:11.982Z,100413.97
2023-03-17T02:14:39.954Z,100396.41
2023-03-17T02:17:08.422Z,100385.16
2023-03-17T02:19:36.394Z,100393.94
2023-03-17T02:22:06.020Z,100411.22
2023-03-17T02:24:37.180Z,100406.97
2023-03-17T02:27:11.810Z,100409.03
2023-03-17T02:29:40.393Z,100390.06
2023-03-17T02:32:10.952Z,100408.28
2023-03-17T02:34:38.869Z,100431.69
2023-03-17T02:37:08.775Z,100415.22
2023-03-17T02:39:37.660Z,100430.78
2023-03-17T02:42:07.017Z,100404.09
2023-03-17T02:44:35.707Z,100398.88
2023-03-17T02:47:04.292Z,100431.88
2023-03-17T02:49:35.652Z,100420.75
2023-03-17T02:52:03.794Z,100404.16
2023-03-17T02:54:33.143Z,100413.78
2023-03-17T02:57:01.777Z,100414.63
2023-03-17T02:59:29.795Z,100407.63
2023-03-17T03:01:57.729Z,100397.34
2023-03-17T03:04:26.212Z,100407.56
2023-03-17T03:06:54.741Z,100400.72
2023-03-17T03:09:22.717Z,100379.13
2023-03-17T03:11:52.242Z,100390.41
2023-03-17T03:14:20.158Z,100397.25
2023-03-17T03:16:48.437Z,100413.00
2023-03-17T03:19:16.413Z,100381.28
2023-03-17T03:21:44.331Z,100402.03
2023-03-17T03:24:12.276Z,100418.44
2023-03-17T03:26:40.201Z,100421.88
2023-03-17T03:29:09.486Z,100424.72
2023-03-17T03:31:37.396Z,100425.59
2023-03-17T03:34:05.884Z,100414.97
2023-03-17T03:36:34.043Z,100415.13
2023-03-17T03:39:02.075Z,100414.13
2023-03-17T03:41:30.005Z,100415.75
2023-03-17T03:43:57.895Z,100405.47
2023-03-17T03:46:27.632Z,100418.84
2023-03-17T03:48:56.220Z,100418.84
2023-03-17T03:51:24.419Z,100356.63
2023-03-17T03:53:52.405Z,100406.91
2023-03-17T03:56:20.282Z,100401.81
2023-03-17T03:58:48.295Z,100392.16
2023-03-17T04:01:16.219Z,100379.22
2023-03-17T04:03:47.242Z,100356.88
2023-03-17T04:06:16.118Z,100347.44
2023-03-17T04:08:44.166Z,100356.72
2023-03-17T04:11:12.163Z,100351.66
2023-03-17T04:13:40.081Z,100343.69
2023-03-17T04:16:08.738Z,100348.22
2023-03-17T04:18:36.863Z,100353.19
2023-03-17T04:21:07.043Z,100356.88
2023-03-17T04:23:35.342Z,100354.97
2023-03-17T04:26:04.039Z,100355.19
2023-03-17T04:28:31.936Z,100341.28
2023-03-17T04:30:59.854Z,100348.13
2023-03-17T04:33:27.749Z,100351.50
2023-03-17T04:35:55.960Z,100332.41
2023-03-17T04:38:25.397Z,100346.34
2023-03-17T04:40:53.352Z,100334.09
2023-03-17T04:43:21.272Z,100337.38
2023-03-17T04:45:49.198Z,100333.47
2023-03-17T04:48:17.154Z,100302.28
2023-03-17T04:50:47.788Z,100331.66
2023-03-17T04:53:15.808Z,100350.75
2023-03-17T04:55:45.451Z,100313.00
2023-03-17T04:58:29.534Z,100336.53
2023-03-17T05:00:58.692Z,100332.16
2023-03-17T05:03:28.312Z,100336.25
2023-03-17T05:05:57.367Z,100317.22
2023-03-17T05:08:26.218Z,100316.38
2023-03-17T05:10:55.990Z,100324.94
2023-03-17T05:13:24.895Z,100341.50
2023-03-17T05:15:54.384Z,100316.56
